Time;durP1;ratioP1;P1;durP2;ratioP2;P2;SDS_P1;SDS_P2;PMS_P1;PMS_P2;Temp;Humidity;BMP_temperature;BMP_pressure;BME280_temperature;BME280_humidity;BME280_pressure;Samples;Min_cycle;Max_cycle;Signal;HPM_P1;HPM_P2
2023/03/25 04:00:21;;;;;;;14.97;14.17;;;6.60;99.90;;;;;;5933539;23;20901;31
2023/03/25 04:02:58;;;;;;;27.20;25.80;;;6.60;99.90;;;;;;4863575;29;20197;-78
2023/03/25 04:05:29;;;;;;;12.97;12.27;;;6.70;99.90;;;;;;4846240;29;20193;-76
2023/03/25 04:08:10;;;;;;;11.43;10.93;;;6.70;99.90;;;;;;4861885;29;20213;-76
2023/03/25 04:10:39;;;;;;;24.17;22.83;;;6.80;99.90;;;;;;4854654;29;20211;-78
2023/03/25 04:13:09;;;;;;;7.60;7.10;;;6.90;99.90;;;;;;4890526;29;20221;-78
2023/03/25 04:15:36;;;;;;;18.43;17.43;;;6.90;99.90;;;;;;4924210;23;20236;-79
2023/03/25 04:18:02;;;;;;;17.60;16.73;;;6.90;99.90;;;;;;4886863;29;20181;-78
2023/03/25 04:20:33;;;;;;;7.93;7.60;;;6.90;99.90;;;;;;4871253;29;20536;-79
2023/03/25 04:23:00;;;;;;;5.13;4.93;;;7.00;99.90;;;;;;4875737;29;20188;-82
2023/03/25 04:25:26;;;;;;;4.40;4.30;;;7.00;99.90;;;;;;4870255;29;20240;-78
2023/03/25 04:27:57;;;;;;;4.90;4.70;;;7.00;99.90;;;;;;4902177;29;20535;-79
2023/03/25 04:30:27;;;;;;;4.93;4.73;;;6.90;99.90;;;;;;4876221;29;20172;-79
2023/03/25 04:32:53;;;;;;;5.17;4.73;;;6.90;99.90;;;;;;4876034;29;20280;-79
2023/03/25 04:35:19;;;;;;;5.00;4.57;;;6.90;99.90;;;;;;4868476;29;20235;-80
2023/03/25 04:37:47;;;;;;;4.30;4.20;;;6.90;99.90;;;;;;4868766;29;20192;-79
2023/03/25 04:40:17;;;;;;;4.53;4.43;;;6.90;99.90;;;;;;4871345;29;20199;-79
2023/03/25 04:42:47;;;;;;;4.80;4.70;;;7.00;99.90;;;;;;4881726;29;20295;-80
2023/03/25 04:45:15;;;;;;;5.03;4.83;;;7.00;99.90;;;;;;4868033;29;20212;-79
2023/03/25 04:47:46;;;;;;;4.67;4.40;;;7.10;99.90;;;;;;4868223;29;20211;-80
2023/03/25 04:50:16;;;;;;;6.07;5.87;;;7.10;99.90;;;;;;4865834;29;20184;-68
2023/03/25 04:52:42;;;;;;;33.00;31.30;;;7.10;99.90;;;;;;4863165;29;20272;-69
2023/03/25 04:55:10;;;;;;;79.37;75.63;;;7.00;99.90;;;;;;4865770;29;20762;-69
2023/03/25 04:57:36;;;;;;;83.67;79.80;;;7.00;99.90;;;;;;4867744;29;20271;-68
2023/03/25 05:00:04;;;;;;;94.03;89.73;;;7.00;99.90;;;;;;4887108;29;20239;-69
2023/03/25 05:02:30;;;;;;;95.13;90.67;;;7.00;99.90;;;;;;4880931;29;20188;-68
2023/03/25 05:05:00;;;;;;;88.40;84.23;;;6.90;99.90;;;;;;4881248;29;20214;-69
2023/03/25 05:07:28;;;;;;;92.97;88.57;;;6.90;99.90;;;;;;4891991;29;20375;-69
2023/03/25 05:09:56;;;;;;;89.70;85.47;;;6.70;99.90;;;;;;4877364;29;20188;-69
2023/03/25 05:12:22;;;;;;;33.40;31.80;;;6.60;99.90;;;;;;4888113;29;20668;-69
2023/03/25 05:14:47;;;;;;;4.80;4.60;;;6.60;99.90;;;;;;4897486;29;20232;-69
2023/03/25 05:17:13;;;;;;;4.27;3.90;;;6.50;99.90;;;;;;4893820;29;20692;-69
2023/03/25 05:19:42;;;;;;;4.57;4.47;;;6.40;99.90;;;;;;4878210;29;20181;-69
2023/03/25 05:22:08;;;;;;;4.00;3.90;;;6.40;99.90;;;;;;4879206;29;20195;-69
2023/03/25 05:24:34;;;;;;;4.13;4.03;;;6.20;99.90;;;;;;4878577;29;20184;-70
2023/03/25 05:27:01;;;;;;;4.90;4.70;;;6.10;99.90;;;;;;4862157;29;20216;-70
2023/03/25 05:29:27;;;;;;;4.60;4.30;;;6.10;99.90;;;;;;4878516;29;20261;-70
2023/03/25 05:31:52;;;;;;;4.57;4.37;;;6.00;99.90;;;;;;4861907;29;20595;-70
2023/03/25 05:34:19;;;;;;;5.70;5.43;;;6.00;99.90;;;;;;4878645;29;20263;-71
2023/03/25 05:36:45;;;;;;;19.20;18.00;;;6.10;99.90;;;;;;4878848;29;20235;-70
2023/03/25 05:39:12;;;;;;;14.17;13.20;;;6.10;99.90;;;;;;4877877;29;20216;-70
2023/03/25 05:41:37;;;;;;;17.53;16.77;;;6.20;99.90;;;;;;4878759;29;20185;-71
2023/03/25 05:44:08;;;;;;;17.17;16.23;;;6.30;99.90;;;;;;4862104;29;20211;-71
2023/03/25 05:46:35;;;;;;;12.93;12.23;;;6.40;99.90;;;;;;4877588;29;20211;-71
2023/03/25 05:49:00;;;;;;;13.87;13.10;;;6.70;99.90;;;;;;4871793;29;20229;-70
2023/03/25 05:51:32;;;;;;;15.63;14.93;;;6.80;99.90;;;;;;4897269;29;20774;-70
2023/03/25 05:53:58;;;;;;;4.43;4.20;;;6.90;99.90;;;;;;4896831;29;20187;-71
2023/03/25 05:56:25;;;;;;;5.30;5.00;;;7.00;99.90;;;;;;4897117;29;20295;-71
2023/03/25 05:58:51;;;;;;;5.90;5.43;;;7.10;99.90;;;;;;4880851;29;20196;-71
2023/03/25 06:01:18;;;;;;;4.33;4.23;;;7.20;99.90;;;;;;4861163;29;20184;-70
2023/03/25 06:03:45;;;;;;;19.97;19.07;;;7.30;99.90;;;;;;4879695;29;20196;-72
2023/03/25 06:06:17;;;;;;;86.97;82.77;;;7.40;99.90;;;;;;4880092;29;20207;-68
2023/03/25 06:08:51;;;;;;;95.23;90.63;;;7.50;99.90;;;;;;4881474;29;20637;-69
2023/03/25 06:11:18;;;;;;;68.50;65.13;;;7.60;99.90;;;;;;4878073;29;20645;-67
2023/03/25 06:13:48;;;;;;;12.70;12.07;;;7.70;99.90;;;;;;4878125;29;20193;-66
2023/03/25 06:16:19;;;;;;;7.93;7.57;;;7.80;99.90;;;;;;4877682;29;20227;-67
2023/03/25 06:18:49;;;;;;;12.00;11.40;;;7.90;99.90;;;;;;4877473;29;20701;-67
2023/03/25 06:21:19;;;;;;;10.97;10.23;;;7.90;99.90;;;;;;4861246;29;20258;-68
2023/03/25 06:23:49;;;;;;;8.60;8.23;;;8.10;99.90;;;;;;4877730;29;20271;-66
2023/03/25 06:26:16;;;;;;;9.13;8.57;;;8.10;99.90;;;;;;4877908;29;20208;-67
2023/03/25 06:28:42;;;;;;;10.33;9.73;;;8.20;99.90;;;;;;4877305;29;20208;-66
2023/03/25 06:31:26;;;;;;;10.07;9.37;;;8.20;99.90;;;;;;4861050;29;20176;-66
2023/03/25 06:33:52;;;;;;;9.83;9.17;;;8.30;99.90;;;;;;4877895;29;20184;-66
2023/03/25 06:36:19;;;;;;;8.63;8.23;;;8.30;99.90;;;;;;4877405;29;20203;-68
2023/03/25 06:38:47;;;;;;;7.50;7.10;;;8.40;99.90;;;;;;4861046;29;20200;-68
2023/03/25 06:41:13;;;;;;;7.40;6.90;;;8.40;99.90;;;;;;4877698;29;20190;-68
2023/03/25 06:43:40;;;;;;;7.33;6.83;;;8.50;99.90;;;;;;4877465;29;20244;-68
2023/03/25 06:46:06;;;;;;;6.67;6.43;;;8.60;99.90;;;;;;4860658;29;20243;-68
2023/03/25 06:48:33;;;;;;;8.83;8.23;;;8.70;99.90;;;;;;4884205;29;20211;-67
2023/03/25 06:50:59;;;;;;;5.90;5.50;;;8.90;99.90;;;;;;4896262;29;20689;-67
2023/03/25 06:53:24;;;;;;;4.60;4.30;;;9.00;99.90;;;;;;4886495;29;20271;-64
2023/03/25 06:55:50;;;;;;;5.10;4.90;;;9.10;99.90;;;;;;4877239;29;20208;-62
2023/03/25 06:58:16;;;;;;;6.23;5.83;;;9.10;99.90;;;;;;4876551;29;20669;-63
2023/03/25 07:00:42;;;;;;;6.00;5.30;;;9.20;99.90;;;;;;4876827;29;20855;-64
2023/03/25 07:03:09;;;;;;;19.57;18.33;;;9.60;99.90;;;;;;4877297;29;20567;-63
2023/03/25 07:05:35;;;;;;;6.00;5.40;;;10.50;99.90;;;;;;4877442;29;20208;-65
2023/03/25 07:08:01;;;;;;;8.83;8.13;;;10.80;99.90;;;;;;4889232;29;20223;-63
2023/03/25 07:10:27;;;;;;;7.50;7.10;;;10.60;99.90;;;;;;4859869;29;20195;-67
2023/03/25 07:12:53;;;;;;;8.70;8.17;;;10.50;99.90;;;;;;4876415;29;20180;-71
2023/03/25 07:15:19;;;;;;;10.77;9.73;;;10.50;99.90;;;;;;4907890;29;20751;-70
2023/03/25 07:17:48;;;;;;;6.27;5.67;;;10.70;99.90;;;;;;4876971;29;20243;-69
2023/03/25 07:20:14;;;;;;;4.00;3.70;;;11.40;99.90;;;;;;4859560;29;20200;-70
2023/03/25 07:22:40;;;;;;;26.20;24.90;;;12.00;99.90;;;;;;4876146;29;20594;-70
2023/03/25 07:25:06;;;;;;;25.43;23.97;;;12.50;99.90;;;;;;4876957;29;20212;-71
2023/03/25 07:27:31;;;;;;;11.83;11.10;;;12.60;99.90;;;;;;4876721;29;20232;-65
2023/03/25 07:29:57;;;;;;;23.00;21.63;;;12.10;99.90;;;;;;4875532;29;20188;-64
2023/03/25 07:32:23;;;;;;;21.40;20.07;;;12.00;99.90;;;;;;4876873;29;20184;-65
2023/03/25 07:34:49;;;;;;;18.63;17.53;;;11.80;99.90;;;;;;4876694;29;20240;-66
2023/03/25 07:37:15;;;;;;;14.60;13.83;;;11.70;99.90;;;;;;4876386;29;20709;-66
2023/03/25 07:39:41;;;;;;;14.30;13.50;;;11.60;99.90;;;;;;4876131;29;20705;-66
2023/03/25 07:42:06;;;;;;;15.87;15.07;;;11.30;99.90;;;;;;4875929;29;20200;-66
2023/03/25 07:44:32;;;;;;;13.53;12.73;;;11.30;99.90;;;;;;4875472;29;20188;-66
2023/03/25 07:46:58;;;;;;;10.57;9.50;;;11.00;99.90;;;;;;4877205;29;20184;-66
2023/03/25 07:49:24;;;;;;;5.10;4.67;;;10.80;99.90;;;;;;4876236;29;20185;-68
2023/03/25 07:51:50;;;;;;;7.43;6.37;;;10.80;99.90;;;;;;4877322;29;20197;-68
2023/03/25 07:54:15;;;;;;;6.10;5.60;;;10.90;99.90;;;;;;4876955;29;20192;-67
2023/03/25 07:56:41;;;;;;;5.33;4.93;;;10.80;99.90;;;;;;4876891;29;20227;-68
2023/03/25 07:59:08;;;;;;;5.63;5.37;;;10.80;99.90;;;;;;4876553;29;20645;-68
2023/03/25 08:01:34;;;;;;;6.90;6.20;;;11.20;99.90;;;;;;4877144;29;20242;-66
2023/03/25 08:03:59;;;;;;;8.67;8.07;;;11.50;99.90;;;;;;4876932;29;20193;-66
2023/03/25 08:06:26;;;;;;;17.30;16.37;;;12.00;99.90;;;;;;4876648;29;20591;-66
2023/03/25 08:08:51;;;;;;;20.80;19.30;;;12.70;99.90;;;;;;4884285;29;20239;-67
2023/03/25 08:11:17;;;;;;;4.40;4.20;;;13.50;99.90;;;;;;4894918;29;20213;-65
2023/03/25 08:13:43;;;;;;;19.13;18.27;;;14.20;99.90;;;;;;4880047;29;20185;-65
2023/03/25 08:16:13;;;;;;;11.83;11.33;;;14.50;99.90;;;;;;4880145;29;20697;-65
2023/03/25 08:18:39;;;;;;;4.40;4.07;;;14.80;99.90;;;;;;4879643;29;20200;-63
2023/03/25 08:21:05;;;;;;;5.63;5.23;;;14.50;99.90;;;;;;4879808;29;20671;-62
2023/03/25 08:23:35;;;;;;;7.27;6.97;;;14.30;99.90;;;;;;4880053;29;20279;-64
2023/03/25 08:26:01;;;;;;;4.17;3.87;;;14.50;99.90;;;;;;4880148;29;20216;-64
2023/03/25 08:28:27;;;;;;;7.83;6.10;;;14.50;99.90;;;;;;4879401;29;20216;-68
2023/03/25 08:30:53;;;;;;;6.53;6.13;;;13.70;99.90;;;;;;4894505;29;20188;-68
2023/03/25 08:33:32;;;;;;;27.40;26.20;;;13.20;99.90;;;;;;4879866;29;20717;-68
2023/03/25 08:36:00;;;;;;;42.77;40.67;;;12.90;99.90;;;;;;4879735;29;20715;-65
2023/03/25 08:38:30;;;;;;;44.93;42.83;;;12.90;99.90;;;;;;4879222;29;20608;-65
2023/03/25 08:40:57;;;;;;;50.33;47.37;;;13.20;99.90;;;;;;4863170;29;20185;-66
2023/03/25 08:43:24;;;;;;;35.20;33.50;;;13.70;99.90;;;;;;4879661;29;20272;-64
2023/03/25 08:45:50;;;;;;;5.87;5.43;;;14.20;99.90;;;;;;4879480;29;20580;-65
2023/03/25 08:48:16;;;;;;;2.97;2.87;;;14.70;99.90;;;;;;4879222;29;20212;-66
2023/03/25 08:50:42;;;;;;;3.10;2.97;;;14.80;99.90;;;;;;4879167;29;20226;-66
2023/03/25 08:53:08;;;;;;;2.73;2.63;;;14.60;99.90;;;;;;4879318;29;20188;-65
2023/03/25 08:55:36;;;;;;;3.43;3.13;;;14.20;99.90;;;;;;4879407;29;20231;-65
2023/03/25 08:58:03;;;;;;;3.23;3.10;;;13.60;99.90;;;;;;4862926;29;20212;-65
2023/03/25 09:00:29;;;;;;;7.77;7.07;;;13.20;99.90;;;;;;4877595;29;20192;-66
2023/03/25 09:02:57;;;;;;;42.63;40.63;;;12.80;99.90;;;;;;4893380;29;20196;-65
2023/03/25 09:05:24;;;;;;;14.03;13.27;;;12.20;99.90;;;;;;4879432;29;20212;-65
2023/03/25 09:07:50;;;;;;;7.73;7.23;;;11.10;99.90;;;;;;4879443;29;20220;-65
2023/03/25 09:10:16;;;;;;;12.20;11.60;;;10.60;99.90;;;;;;4878270;29;20347;-65
2023/03/25 09:12:42;;;;;;;15.77;14.93;;;10.20;99.90;;;;;;4879396;29;20584;-65
2023/03/25 09:15:10;;;;;;;43.77;41.70;;;10.00;99.90;;;;;;4879004;29;20236;-65
2023/03/25 09:17:36;;;;;;;51.10;48.63;;;9.90;99.90;;;;;;4879148;29;20555;-65
2023/03/25 09:20:02;;;;;;;22.53;21.53;;;9.70;99.90;;;;;;4877765;29;20216;-65
2023/03/25 09:22:28;;;;;;;3.83;3.63;;;9.50;99.90;;;;;;4878787;29;20725;-63
2023/03/25 09:24:54;;;;;;;9.57;9.17;;;9.30;99.90;;;;;;4878918;29;20303;-64
2023/03/25 09:27:20;;;;;;;52.00;49.60;;;9.10;99.90;;;;;;4879024;29;20215;-65
2023/03/25 09:29:46;;;;;;;22.83;21.87;;;9.10;99.90;;;;;;4877915;29;20654;-65
2023/03/25 09:32:12;;;;;;;4.07;3.97;;;9.20;99.90;;;;;;4878793;29;20237;-65
2023/03/25 09:34:38;;;;;;;15.20;14.60;;;9.30;99.90;;;;;;4878901;29;20212;-65
2023/03/25 09:37:04;;;;;;;6.03;5.83;;;9.60;99.90;;;;;;4879013;29;20188;-65
2023/03/25 09:39:30;;;;;;;11.17;10.73;;;9.80;99.90;;;;;;4877810;29;20212;-66
2023/03/25 09:42:34;;;;;;;12.77;12.20;;;10.40;99.90;;;;;;4878811;29;20191;-66
2023/03/25 09:45:25;;;;;;;49.50;47.03;;;10.90;99.90;;;;;;4878725;29;20212;-65
2023/03/25 09:48:02;;;;;;;48.30;46.07;;;10.70;99.90;;;;;;4878770;29;20227;-66
2023/03/25 09:50:32;;;;;;;44.47;42.33;;;11.00;99.90;;;;;;4877704;29;20623;-65
2023/03/25 09:53:00;;;;;;;11.90;4.10;;;11.70;99.90;;;;;;4878796;29;20188;-65
2023/03/25 09:55:31;;;;;;;31.70;30.20;;;12.20;99.90;;;;;;4878552;29;20204;-65
2023/03/25 09:58:23;;;;;;;32.13;30.63;;;12.30;99.90;;;;;;4878803;29;20588;-66
2023/03/25 10:01:14;;;;;;;9.63;9.30;;;12.50;99.90;;;;;;4872351;29;20212;-65
2023/03/25 10:03:48;;;;;;;9.57;9.03;;;12.60;99.90;;;;;;4878355;29;20200;-65
2023/03/25 10:06:19;;;;;;;6.63;6.37;;;13.20;99.90;;;;;;4878332;29;20216;-66
2023/03/25 10:09:11;;;;;;;8.23;7.83;;;14.00;99.90;;;;;;4877325;29;20776;-67
2023/03/25 10:11:56;;;;;;;8.47;8.07;;;15.10;99.90;;;;;;4859559;29;20189;-66
2023/03/25 10:15:07;;;;;;;7.53;7.23;;;15.30;99.90;;;;;;4859343;29;20192;-68
2023/03/25 10:17:46;;;;;;;16.40;15.57;;;15.80;99.90;;;;;;4841971;29;20612;-67
2023/03/25 10:20:21;;;;;;;48.53;46.17;;;16.40;99.90;;;;;;4868186;29;20203;-67
2023/03/25 10:23:06;;;;;;;21.63;20.53;;;15.90;99.90;;;;;;4877967;29;20199;-67
2023/03/25 10:25:37;;;;;;;28.03;26.73;;;15.10;99.90;;;;;;4877658;29;20204;-68
2023/03/25 10:28:05;;;;;;;21.13;20.03;;;14.20;99.90;;;;;;4878031;29;20216;-72
2023/03/25 10:30:40;;;;;;;12.70;12.10;;;13.70;99.90;;;;;;4876925;29;20246;-72
2023/03/25 10:33:44;;;;;;;3.87;3.57;;;13.20;99.90;;;;;;4877735;29;20299;-69
2023/03/25 10:36:16;;;;;;;3.70;3.60;;;13.20;99.90;;;;;;4860376;29;20307;-69
2023/03/25 10:38:45;;;;;;;13.13;12.37;;;13.50;99.90;;;;;;4876813;29;20758;-70
2023/03/25 10:41:26;;;;;;;5.50;5.20;;;14.10;99.90;;;;;;4877451;29;20185;-72
2023/03/25 10:43:52;;;;;;;15.93;14.83;;;14.90;99.90;;;;;;4877884;29;20195;-73
2023/03/25 10:46:18;;;;;;;50.67;48.23;;;15.30;99.90;;;;;;4877628;29;20200;-72
2023/03/25 10:48:45;;;;;;;31.47;29.90;;;16.10;99.90;;;;;;4860174;29;20773;-71
2023/03/25 10:51:15;;;;;;;11.20;10.67;;;15.90;99.90;;;;;;4877111;29;20176;-75
2023/03/25 10:53:44;;;;;;;6.30;6.00;;;15.30;99.90;;;;;;4877647;29;20188;-73
2023/03/25 10:56:17;;;;;;;69.80;66.57;;;14.40;99.90;;;;;;4877504;29;20200;-74
2023/03/25 10:58:48;;;;;;;33.00;31.40;;;13.80;99.90;;;;;;4876880;29;20189;-74
2023/03/25 11:01:20;;;;;;;26.90;25.70;;;13.40;99.90;;;;;;4859821;29;20196;-74
2023/03/25 11:03:51;;;;;;;9.93;9.53;;;13.20;99.90;;;;;;4877661;29;20192;-73
2023/03/25 11:06:25;;;;;;;17.03;16.23;;;12.70;99.90;;;;;;4877463;29;20759;-73
2023/03/25 11:09:08;;;;;;;4.30;3.90;;;12.40;99.90;;;;;;4876254;29;20217;-74
2023/03/25 11:11:35;;;;;;;8.50;8.07;;;12.60;99.90;;;;;;4881770;29;20332;-72
2023/03/25 11:14:02;;;;;;;5.27;5.03;;;12.70;99.90;;;;;;4882017;29;20191;-73
2023/03/25 11:16:33;;;;;;;9.80;9.33;;;12.80;99.90;;;;;;4880613;29;20220;-73
2023/03/25 11:19:01;;;;;;;7.43;6.93;;;12.80;99.90;;;;;;4877054;29;20188;-72
2023/03/25 11:21:31;;;;;;;14.37;12.90;;;12.60;99.90;;;;;;4877131;29;20758;-72
2023/03/25 11:23:59;;;;;;;8.40;7.93;;;12.40;99.90;;;;;;4877511;29;20200;-75
2023/03/25 11:26:32;;;;;;;4.63;4.23;;;12.00;99.90;;;;;;4878335;29;20353;-76
2023/03/25 11:29:19;;;;;;;10.53;10.10;;;11.50;99.90;;;;;;4871266;29;20248;-77
2023/03/25 11:32:13;;;;;;;22.20;21.20;;;10.90;99.90;;;;;;4859687;29;20185;-72
2023/03/25 11:34:42;;;;;;;32.17;30.50;;;10.60;99.90;;;;;;4862669;29;20680;-76
2023/03/25 11:37:17;;;;;;;5.10;4.90;;;10.40;99.90;;;;;;4909877;29;20190;-75
2023/03/25 11:39:49;;;;;;;43.30;41.27;;;10.70;99.90;;;;;;4887217;29;20649;-77
2023/03/25 11:42:24;;;;;;;7.93;7.63;;;11.30;99.90;;;;;;4860173;29;20193;-77
2023/03/25 11:44:55;;;;;;;14.53;13.93;;;11.70;99.90;;;;;;4878239;29;20743;-77
2023/03/25 11:47:33;;;;;;;11.87;11.30;;;11.70;99.90;;;;;;4863290;29;20212;-77
2023/03/25 11:50:00;;;;;;;3.77;3.67;;;11.80;99.90;;;;;;4880269;29;20180;-78
2023/03/25 11:52:40;;;;;;;6.37;6.13;;;11.90;99.90;;;;;;4863318;29;20208;-77
2023/03/25 11:55:16;;;;;;;7.13;6.83;;;12.10;99.90;;;;;;4863994;29;20208;-77
2023/03/25 11:57:44;;;;;;;12.33;11.73;;;12.70;99.90;;;;;;4880877;29;20222;-76
2023/03/25 12:00:32;;;;;;;11.13;10.60;;;12.80;99.90;;;;;;4879578;29;20180;-77
2023/03/25 12:03:12;;;;;;;7.80;7.20;;;12.90;99.90;;;;;;4880655;29;20192;-78
2023/03/25 12:05:39;;;;;;;25.97;24.63;;;13.60;99.90;;;;;;4866335;29;20211;-77
2023/03/25 12:08:15;;;;;;;38.03;36.13;;;13.80;99.90;;;;;;4886564;29;20220;-80
2023/03/25 12:10:56;;;;;;;18.83;17.93;;;13.90;99.90;;;;;;4888083;29;20215;-80
2023/03/25 12:13:25;;;;;;;23.67;22.57;;;13.70;99.90;;;;;;4864779;29;20219;-77
2023/03/25 12:16:06;;;;;;;28.27;26.97;;;13.60;99.90;;;;;;4880910;29;20231;-78
2023/03/25 12:19:08;;;;;;;32.53;30.93;;;13.40;99.90;;;;;;4880364;29;20196;-77
2023/03/25 12:21:51;;;;;;;30.90;29.40;;;13.20;99.90;;;;;;4829544;29;20364;-80
2023/03/25 12:24:20;;;;;;;23.47;22.13;;;13.20;99.90;;;;;;4879390;29;20200;-79
2023/03/25 12:27:13;;;;;;;31.93;30.40;;;13.10;99.90;;;;;;4895253;29;20201;-78
2023/03/25 12:29:56;;;;;;;36.40;34.80;;;12.90;99.90;;;;;;4894239;29;20196;-78
2023/03/25 12:32:31;;;;;;;62.17;59.10;;;12.80;99.90;;;;;;4880853;29;20211;-78
2023/03/25 12:35:09;;;;;;;7.83;7.50;;;12.70;99.90;;;;;;4880332;29;20674;-78
2023/03/25 12:37:55;;;;;;;5.97;5.77;;;12.60;99.90;;;;;;4881654;29;20188;-79
2023/03/25 12:40:40;;;;;;;7.23;6.93;;;12.90;99.90;;;;;;4864346;29;20185;-78
2023/03/25 12:43:14;;;;;;;6.37;6.03;;;12.90;99.90;;;;;;4882195;29;20196;-77
2023/03/25 12:45:54;;;;;;;15.97;15.00;;;12.80;99.90;;;;;;4885070;29;20696;-78
2023/03/25 12:48:48;;;;;;;12.10;11.50;;;12.70;99.90;;;;;;4879343;29;20281;-80
2023/03/25 12:51:17;;;;;;;35.30;33.63;;;12.90;99.90;;;;;;4863417;29;20211;-78
2023/03/25 12:53:57;;;;;;;29.00;27.60;;;13.30;99.90;;;;;;4879918;29;20177;-78
2023/03/25 12:57:08;;;;;;;3.40;3.30;;;13.90;99.90;;;;;;4894574;29;20204;-78
2023/03/25 12:59:41;;;;;;;5.40;5.03;;;13.40;99.90;;;;;;4862773;29;20181;-77
2023/03/25 13:02:37;;;;;;;33.07;31.17;;;12.90;99.90;;;;;;4879232;29;20276;-78
2023/03/25 13:05:29;;;;;;;33.87;32.30;;;12.80;99.90;;;;;;4862818;29;20686;-77
2023/03/25 13:08:40;;;;;;;43.63;41.60;;;12.00;99.90;;;;;;4879496;29;20262;-77
2023/03/25 13:11:12;;;;;;;4.70;4.50;;;11.80;99.90;;;;;;4879227;29;20183;-77
2023/03/25 13:13:41;;;;;;;6.50;6.30;;;11.60;99.90;;;;;;4879852;29;20204;-78
2023/03/25 13:16:18;;;;;;;4.00;3.80;;;11.70;99.90;;;;;;4862919;29;20216;-77
2023/03/25 13:18:55;;;;;;;30.80;29.40;;;12.40;99.90;;;;;;4878627;29;20697;-79
2023/03/25 13:21:36;;;;;;;18.80;18.00;;;13.90;99.90;;;;;;4893821;29;20275;-79
2023/03/25 13:24:09;;;;;;;3.33;3.23;;;14.80;99.90;;;;;;4864023;29;20539;-77
2023/03/25 13:26:36;;;;;;;4.33;4.23;;;15.60;99.90;;;;;;4863904;29;20208;-78
2023/03/25 13:29:05;;;;;;;4.77;4.57;;;15.80;99.90;;;;;;4890505;29;20208;-80
2023/03/25 13:31:43;;;;;;;5.37;5.00;;;16.90;99.90;;;;;;4879890;29;20193;-79
2023/03/25 13:34:35;;;;;;;4.87;4.47;;;16.80;99.90;;;;;;4866139;29;20860;-77
2023/03/25 13:37:20;;;;;;;4.43;4.30;;;15.20;99.90;;;;;;4847535;29;20185;-78
2023/03/25 13:40:32;;;;;;;9.00;8.60;;;13.80;99.90;;;;;;4865660;29;20192;-78
2023/03/25 13:42:59;;;;;;;3.60;3.50;;;13.00;99.90;;;;;;4841236;29;20197;-79
2023/03/25 13:45:30;;;;;;;6.10;5.47;;;12.70;99.90;;;;;;4876761;29;20205;-78
2023/03/25 13:48:37;;;;;;;7.10;6.70;;;12.50;99.90;;;;;;4880923;29;20253;-79
2023/03/25 13:51:04;;;;;;;11.40;10.87;;;12.90;99.90;;;;;;4883602;29;20611;-79
2023/03/25 13:53:42;;;;;;;4.80;4.40;;;13.40;99.90;;;;;;4863025;29;20653;-77
2023/03/25 13:56:27;;;;;;;5.77;5.43;;;13.30;99.90;;;;;;4878941;29;20271;-77
2023/03/25 13:59:01;;;;;;;4.47;4.10;;;13.50;99.90;;;;;;4867152;29;20188;-76
2023/03/25 14:01:34;;;;;;;4.83;3.77;;;13.40;99.90;;;;;;4868430;29;20212;-78
2023/03/25 14:04:22;;;;;;;4.17;3.77;;;13.40;99.90;;;;;;4901750;29;20189;-79
2023/03/25 14:07:05;;;;;;;4.70;4.50;;;13.50;99.90;;;;;;4895303;29;20721;-78
2023/03/25 14:09:48;;;;;;;7.00;3.60;;;13.00;99.90;;;;;;4878447;29;20238;-78
2023/03/25 14:12:22;;;;;;;4.03;3.83;;;12.80;99.90;;;;;;4880402;29;20185;-77
2023/03/25 14:14:56;;;;;;;3.90;3.70;;;13.20;99.90;;;;;;4882868;29;20298;-78
2023/03/25 14:17:22;;;;;;;5.17;4.80;;;13.80;99.90;;;;;;4862960;29;20196;-79
2023/03/25 14:19:54;;;;;;;4.90;4.60;;;14.30;99.90;;;;;;4861644;29;20726;-79
2023/03/25 14:22:27;;;;;;;5.60;4.97;;;14.20;99.90;;;;;;4862438;29;20196;-79
2023/03/25 14:24:54;;;;;;;5.67;5.27;;;13.70;99.90;;;;;;4878845;29;20212;-79
2023/03/25 14:27:36;;;;;;;5.63;5.13;;;13.30;99.90;;;;;;4879228;29;20653;-78
2023/03/25 14:30:05;;;;;;;5.57;5.37;;;13.20;99.90;;;;;;4861072;29;20195;-79
2023/03/25 14:32:37;;;;;;;4.30;4.10;;;12.80;99.90;;;;;;4861249;29;20185;-75
2023/03/25 14:35:37;;;;;;;10.57;10.00;;;12.60;99.90;;;;;;4877873;29;20281;-76
2023/03/25 14:38:08;;;;;;;6.37;6.03;;;11.60;99.90;;;;;;4877786;29;20247;-76
2023/03/25 14:40:41;;;;;;;54.47;51.83;;;10.40;99.90;;;;;;4876965;29;20192;-75
2023/03/25 14:43:26;;;;;;;7.93;7.57;;;9.90;99.90;;;;;;4877350;29;20192;-76
2023/03/25 14:46:11;;;;;;;8.87;8.47;;;10.70;99.90;;;;;;4877786;29;20291;-76
2023/03/25 14:48:44;;;;;;;16.80;16.10;;;12.70;99.90;;;;;;4860902;29;20267;-75
2023/03/25 14:51:26;;;;;;;6.03;5.73;;;14.30;99.90;;;;;;4890825;29;20191;-75
2023/03/25 14:54:15;;;;;;;4.80;4.60;;;14.50;99.90;;;;;;4875212;29;20201;-74
2023/03/25 14:57:05;;;;;;;14.67;13.77;;;15.50;99.90;;;;;;4870757;29;20216;-75
2023/03/25 14:59:36;;;;;;;11.47;10.67;;;16.00;99.90;;;;;;4878207;29;20188;-75
2023/03/25 15:02:20;;;;;;;6.23;5.97;;;16.90;99.90;;;;;;4877840;29;20234;-75
2023/03/25 15:05:10;;;;;;;4.43;4.17;;;15.80;99.90;;;;;;4877415;29;20307;-76
2023/03/25 15:07:38;;;;;;;3.87;3.67;;;14.80;99.90;;;;;;4877413;29;20711;-76
2023/03/25 15:10:05;;;;;;;6.50;6.10;;;15.30;99.90;;;;;;4877236;29;20204;-75
2023/03/25 15:12:36;;;;;;;7.20;6.83;;;15.30;99.90;;;;;;4860714;29;20192;-76
2023/03/25 15:15:26;;;;;;;5.90;5.53;;;15.00;99.90;;;;;;4891940;29;20231;-75
2023/03/25 15:17:52;;;;;;;5.73;5.43;;;14.70;99.90;;;;;;4877603;29;20196;-75
2023/03/25 15:20:20;;;;;;;8.00;7.43;;;14.80;99.90;;;;;;4880006;29;20184;-75
2023/03/25 15:23:18;;;;;;;6.07;5.80;;;14.80;99.90;;;;;;4881457;29;20253;-75
2023/03/25 15:25:53;;;;;;;5.07;4.77;;;15.10;99.90;;;;;;4881344;29;20627;-75
2023/03/25 15:28:19;;;;;;;4.80;4.50;;;16.00;99.90;;;;;;4880911;29;20307;-76
2023/03/25 15:31:10;;;;;;;4.53;4.23;;;16.00;99.90;;;;;;4880893;29;20283;-75
2023/03/25 15:34:02;;;;;;;6.60;6.27;;;16.30;99.90;;;;;;4880986;29;20568;-75
2023/03/25 15:36:44;;;;;;;8.33;7.73;;;15.90;99.90;;;;;;4881181;29;20370;-75
2023/03/25 15:39:34;;;;;;;6.63;6.33;;;15.30;99.90;;;;;;4880760;29;20241;-75
2023/03/25 15:42:27;;;;;;;6.17;5.57;;;14.20;99.90;;;;;;4880897;29;20267;-75
2023/03/25 15:45:18;;;;;;;4.83;4.53;;;13.40;99.90;;;;;;4880825;29;20208;-75
2023/03/25 15:48:16;;;;;;;7.93;7.47;;;13.20;99.90;;;;;;4895353;29;20227;-75
2023/03/25 15:51:00;;;;;;;10.43;9.53;;;12.90;99.90;;;;;;4880264;29;20196;-75
2023/03/25 15:53:49;;;;;;;13.93;11.90;;;12.70;99.90;;;;;;4880549;29;20188;-75
2023/03/25 15:56:29;;;;;;;6.03;5.10;;;12.70;99.90;;;;;;4880705;29;20315;-75
2023/03/25 15:59:05;;;;;;;6.07;5.70;;;12.80;99.90;;;;;;4880488;29;20199;-75
2023/03/25 16:01:38;;;;;;;6.50;5.97;;;12.70;99.90;;;;;;4882733;29;20196;-74
2023/03/25 16:04:20;;;;;;;5.80;5.47;;;12.80;99.90;;;;;;4864680;29;20199;-75
2023/03/25 16:06:49;;;;;;;6.83;6.30;;;13.10;99.90;;;;;;4895095;29;20212;-75
2023/03/25 16:09:25;;;;;;;4.60;4.20;;;14.80;99.90;;;;;;4880285;29;20311;-75
2023/03/25 16:11:51;;;;;;;4.57;4.37;;;14.40;99.90;;;;;;4894836;29;20195;-74
2023/03/25 16:14:21;;;;;;;4.90;4.53;;;13.70;99.90;;;;;;4880379;29;20188;-74
2023/03/25 16:16:55;;;;;;;5.30;4.90;;;13.20;99.90;;;;;;4907390;23;20715;-78
2023/03/25 16:19:43;;;;;;;5.93;5.73;;;12.90;99.90;;;;;;4883456;29;20250;-78
2023/03/25 16:22:31;;;;;;;6.00;5.70;;;12.70;99.90;;;;;;4883234;29;20660;-78
2023/03/25 16:25:07;;;;;;;7.20;6.70;;;12.60;99.90;;;;;;4902278;29;20657;-77
2023/03/25 16:27:41;;;;;;;5.70;5.40;;;12.60;99.90;;;;;;4907091;29;20365;-77
2023/03/25 16:30:21;;;;;;;5.83;5.43;;;12.60;99.90;;;;;;4906363;29;20179;-77
2023/03/25 16:32:47;;;;;;;6.43;6.03;;;12.50;99.90;;;;;;4891430;29;20183;-77
2023/03/25 16:35:23;;;;;;;6.40;6.10;;;12.50;99.90;;;;;;4919338;29;20188;-77
2023/03/25 16:37:51;;;;;;;6.97;6.23;;;12.60;99.90;;;;;;4912199;29;20224;-77
2023/03/25 16:40:25;;;;;;;6.90;6.60;;;12.50;99.90;;;;;;4885350;29;20180;-78
2023/03/25 16:42:53;;;;;;;7.47;7.07;;;12.30;99.90;;;;;;4882513;29;20179;-78
2023/03/25 16:45:21;;;;;;;6.97;6.67;;;12.20;99.90;;;;;;4900127;29;20652;-77
2023/03/25 16:47:48;;;;;;;7.77;7.33;;;12.10;99.90;;;;;;4882791;29;20236;-78
2023/03/25 16:50:18;;;;;;;7.77;7.30;;;12.10;99.90;;;;;;4899332;29;20183;-78
2023/03/25 16:52:45;;;;;;;9.10;8.50;;;12.00;99.90;;;;;;4883265;29;20227;-78
2023/03/25 16:55:12;;;;;;;16.50;15.70;;;11.90;99.90;;;;;;4902701;29;20180;-78
2023/03/25 16:57:39;;;;;;;22.70;21.60;;;11.90;99.90;;;;;;4885270;29;20270;-78
2023/03/25 17:00:23;;;;;;;17.93;17.03;;;11.90;99.90;;;;;;4885156;29;20663;-78
2023/03/25 17:02:50;;;;;;;18.07;17.27;;;11.80;99.90;;;;;;4885437;29;20219;-78
2023/03/25 17:05:19;;;;;;;22.33;21.13;;;11.70;99.90;;;;;;4882612;29;20203;-77
2023/03/25 17:07:55;;;;;;;19.70;18.50;;;11.60;99.90;;;;;;4899174;29;20208;-78
2023/03/25 17:10:27;;;;;;;18.60;17.70;;;11.60;99.90;;;;;;4882277;29;20210;-78